METAR de aeropuertos de Murcia y cercanos

 

LEAL - Alicante
Actualización: 10/12/2018 14:30
Few Clouds
Few Clouds
 Viento del E
Viento: E 11 km/h
Temperatura: 17°C
Rocío: 11°C
Humedad: 68%
Barómetro: 1027 hPa
Nubosidad: Few Clouds
Visibilidad: 10 km
Cloud details: Few Clouds 610 m
2018/12/10 13:30 LEAL 101330Z 10006KT 070V140 9999 FEW020 17/11 Q1027 NOSIG
LEAB - Albacete
Actualización: 10/12/2018 14:00
Despejado
Despejado
 Viento del N
Viento: N 6 km/h
Temperatura: 14°C
Rocío: 0°C
Humedad: 39%
Barómetro: 1028 hPa
Resumen: Despejado
Visibilidad: greater than 10 km
2018/12/10 13:00 LEAB 101300Z 35003KT 320V050 CAVOK 14/M00 Q1028 NOSIG
LEAM - Almería
Actualización: 10/12/2018 14:30
Despejado
Despejado
 Viento del varies
Viento: varies 7 km/h
Temperatura: 22°C
Rocío: 7°C
Humedad: 38%
Barómetro: 1026 hPa
Resumen: Despejado
Visibilidad: greater than 10 km
2018/12/10 13:30 LEAM 101330Z VRB04KT CAVOK 22/07 Q1026
 
LERI - Murcia/Alcantarilla
Actualización: 10/12/2018 14:00
Few Clouds
Few Clouds
 Viento del NNE
Viento: NNE 2 km/h
Temperatura: 19°C
Rocío: 11°C
Humedad: 60%
Barómetro: 1027 hPa
Nubosidad: Few Clouds
Visibilidad: 10 km
Cloud details: Few Clouds 610 m
2018/12/10 13:00 LERI 101300Z 02001KT 9999 FEW020 19/11 Q1027 NOSIG
LELC - Murcia/San Javier
Actualización: 10/12/2018 14:30
Few Clouds
Few Clouds
 Viento del E
Viento: E 7 km/h
Temperatura: 18°C
Rocío: 12°C
Humedad: 68%
Barómetro: 1027 hPa
Nubosidad: Few Clouds
Visibilidad: 10 km
Cloud details: Few Clouds 762 m
2018/12/10 13:30 LELC 101330Z 08004KT 040V120 9999 FEW025 18/12 Q1027 NOSIG

La estación de MeteoMurcia.com, publica sus datos en los siguientes proyectos:

Meteoclimatic www.awekas.at

W3Counter
Web Analytics